Time;durP1;ratioP1;P1;durP2;ratioP2;P2;SDS_P1;SDS_P2;PMS_P1;PMS_P2;Temp;Humidity;BMP_temperature;BMP_pressure;BME280_temperature;BME280_humidity;BME280_pressure;Samples;Min_cycle;Max_cycle;Signal;HPM_P1;HPM_P2
2023/07/21 00:00:21;;;;;;;5.83;5.53;;;22.00;6.90;;;;;;4987768;28;20946;-61
2023/07/21 00:02:47;;;;;;;6.73;6.33;;;22.00;7.10;;;;;;4971773;28;20195;-61
2023/07/21 00:05:15;;;;;;;6.17;5.87;;;22.00;7.20;;;;;;4971583;28;20422;-59
2023/07/21 00:07:41;;;;;;;6.37;6.07;;;22.00;7.40;;;;;;4971590;28;20445;-58
2023/07/21 00:10:08;;;;;;;5.83;5.63;;;22.00;7.70;;;;;;4971402;28;20481;-59
2023/07/21 00:12:47;;;;;;;6.37;5.97;;;22.00;7.80;;;;;;4971593;28;20462;-59
2023/07/21 00:15:15;;;;;;;6.33;5.83;;;21.90;7.80;;;;;;4971575;28;20414;-59
2023/07/21 00:17:41;;;;;;;6.40;6.10;;;21.90;8.00;;;;;;4971616;28;20512;-59
2023/07/21 00:20:12;;;;;;;6.60;6.10;;;21.90;8.10;;;;;;4971517;28;20778;-59
2023/07/21 00:22:38;;;;;;;6.23;5.83;;;21.90;8.20;;;;;;4971622;28;20431;-59
2023/07/21 00:25:10;;;;;;;6.50;6.20;;;21.90;8.20;;;;;;4971536;28;20426;-59
2023/07/21 00:27:37;;;;;;;6.80;6.30;;;21.90;8.20;;;;;;4971724;28;20422;-59
2023/07/21 00:30:07;;;;;;;6.57;6.27;;;21.80;8.60;;;;;;4971391;28;20481;-59
2023/07/21 00:32:33;;;;;;;6.23;5.93;;;21.90;8.50;;;;;;4972617;28;20464;-59
2023/07/21 00:34:58;;;;;;;6.10;5.90;;;21.90;8.60;;;;;;4974958;28;20414;-59
2023/07/21 00:37:24;;;;;;;6.20;5.80;;;21.80;8.60;;;;;;4975022;28;20189;-59
2023/07/21 00:39:49;;;;;;;5.93;5.70;;;21.80;8.60;;;;;;4990844;28;20632;-59
2023/07/21 00:42:15;;;;;;;5.90;5.60;;;21.90;8.50;;;;;;4974763;28;20183;-59
2023/07/21 00:44:41;;;;;;;6.37;5.87;;;21.80;8.40;;;;;;4974719;28;20217;-59
2023/07/21 00:47:06;;;;;;;6.40;6.10;;;21.80;8.30;;;;;;4990897;28;20179;-59
2023/07/21 00:49:34;;;;;;;6.20;5.80;;;21.80;8.10;;;;;;4974746;28;20273;-58
2023/07/21 00:51:59;;;;;;;5.97;5.67;;;21.80;8.10;;;;;;4974572;28;20554;-59
2023/07/21 00:54:25;;;;;;;6.20;6.00;;;21.80;8.00;;;;;;4974585;28;20433;-59
2023/07/21 00:56:53;;;;;;;6.77;6.37;;;21.80;7.90;;;;;;4990781;28;20175;-58
2023/07/21 00:59:18;;;;;;;6.43;6.13;;;21.90;8.60;;;;;;4974216;28;20468;-58
2023/07/21 01:01:44;;;;;;;6.60;6.30;;;21.90;8.80;;;;;;4974531;28;20918;-57
2023/07/21 01:04:10;;;;;;;7.07;6.47;;;21.80;9.00;;;;;;4990633;28;20589;-58
2023/07/21 01:06:38;;;;;;;6.63;6.33;;;21.80;9.00;;;;;;4974473;28;20225;-58
2023/07/21 01:09:06;;;;;;;6.37;6.07;;;21.80;9.10;;;;;;4974110;28;20935;-58
2023/07/21 01:11:33;;;;;;;6.37;6.07;;;21.70;9.20;;;;;;4974093;28;20446;-58
2023/07/21 01:14:02;;;;;;;6.80;6.50;;;21.80;8.80;;;;;;4974239;28;20433;-58
2023/07/21 01:16:32;;;;;;;7.20;6.80;;;21.80;9.00;;;;;;4974239;28;20426;-58
2023/07/21 01:18:58;;;;;;;6.70;6.40;;;21.70;9.00;;;;;;4974062;28;20418;-58
2023/07/21 01:21:30;;;;;;;6.53;6.23;;;21.70;9.00;;;;;;4974085;28;20414;-58
2023/07/21 01:24:08;;;;;;;6.90;6.50;;;21.70;8.80;;;;;;4990239;28;20922;-58
2023/07/21 01:26:36;;;;;;;6.40;6.03;;;21.70;8.60;;;;;;4974137;28;20410;-61
2023/07/21 01:29:04;;;;;;;6.80;6.40;;;21.70;8.50;;;;;;4973756;28;20926;-61
2023/07/21 01:31:30;;;;;;;6.80;6.40;;;21.70;8.60;;;;;;4975243;28;20414;-61
2023/07/21 01:33:57;;;;;;;6.40;6.10;;;21.70;8.60;;;;;;4973866;28;20775;-61
2023/07/21 01:36:23;;;;;;;6.80;6.50;;;21.70;8.70;;;;;;4973799;28;20620;-61
2023/07/21 01:38:50;;;;;;;6.67;6.37;;;21.70;8.90;;;;;;4973627;28;20445;-61
2023/07/21 01:41:16;;;;;;;7.03;6.47;;;21.70;8.90;;;;;;4973643;28;20429;-61
2023/07/21 01:43:42;;;;;;;6.70;6.40;;;21.70;9.30;;;;;;4972762;28;20561;-61
2023/07/21 01:46:11;;;;;;;6.77;6.37;;;21.70;9.40;;;;;;4973630;28;20501;-61
2023/07/21 01:48:36;;;;;;;6.70;6.40;;;21.70;9.50;;;;;;4973539;28;20426;-61
2023/07/21 01:51:05;;;;;;;6.93;6.60;;;21.70;9.60;;;;;;4973580;28;20856;-61
2023/07/21 01:53:33;;;;;;;6.10;5.90;;;21.70;9.60;;;;;;4973390;28;20655;-61
2023/07/21 01:56:09;;;;;;;6.87;6.57;;;21.70;9.60;;;;;;4973421;28;20470;-58
2023/07/21 01:58:37;;;;;;;7.37;7.07;;;21.70;9.70;;;;;;4973332;28;20505;-58
2023/07/21 02:01:05;;;;;;;6.63;6.23;;;21.70;9.80;;;;;;4973335;28;20429;-58
2023/07/21 02:03:31;;;;;;;6.87;6.57;;;21.60;9.70;;;;;;4973341;28;20457;-59
2023/07/21 02:05:57;;;;;;;7.10;6.70;;;21.60;9.70;;;;;;4973318;28;20787;-59
2023/07/21 02:08:23;;;;;;;6.87;6.47;;;21.60;9.70;;;;;;4972975;28;20476;-59
2023/07/21 02:10:49;;;;;;;6.60;6.30;;;21.70;9.60;;;;;;4973060;28;20262;-58
2023/07/21 02:13:15;;;;;;;6.70;6.40;;;21.70;9.70;;;;;;4973110;28;20214;-59
2023/07/21 02:15:41;;;;;;;6.67;6.37;;;21.60;9.20;;;;;;4973189;28;20179;-61
2023/07/21 02:18:07;;;;;;;6.43;6.13;;;21.60;9.40;;;;;;4972844;28;20422;-61
2023/07/21 02:20:32;;;;;;;7.00;6.70;;;21.60;9.40;;;;;;4974364;28;20417;-61
2023/07/21 02:22:59;;;;;;;6.83;6.43;;;21.60;9.50;;;;;;4972968;28;20189;-61
2023/07/21 02:25:25;;;;;;;7.10;6.70;;;21.70;9.80;;;;;;4972805;28;20186;-61
2023/07/21 02:27:50;;;;;;;6.40;6.20;;;21.60;9.70;;;;;;4972893;28;20429;-61
2023/07/21 02:30:16;;;;;;;7.20;6.70;;;21.60;9.70;;;;;;4972707;28;20277;-61
2023/07/21 02:32:43;;;;;;;7.10;6.70;;;21.60;9.70;;;;;;4972887;28;20582;-61
2023/07/21 02:35:09;;;;;;;6.73;6.43;;;21.60;9.70;;;;;;4972715;28;20702;-61
2023/07/21 02:37:36;;;;;;;6.53;6.23;;;21.60;9.80;;;;;;4972784;28;20504;-61
2023/07/21 02:40:04;;;;;;;7.27;6.87;;;21.60;9.70;;;;;;4972506;28;20524;-61
2023/07/21 02:42:30;;;;;;;6.97;6.67;;;21.60;9.70;;;;;;4972624;28;20493;-61
2023/07/21 02:44:55;;;;;;;7.63;7.03;;;21.70;9.80;;;;;;4972628;28;21013;-61
2023/07/21 02:47:21;;;;;;;7.30;7.00;;;21.60;9.90;;;;;;4972392;28;20591;-61
2023/07/21 02:49:47;;;;;;;9.93;6.90;;;21.60;10.10;;;;;;4972383;28;20241;-61
2023/07/21 02:52:12;;;;;;;6.50;6.20;;;21.60;10.20;;;;;;4972271;28;20206;-61
2023/07/21 02:54:38;;;;;;;6.77;6.57;;;21.60;10.40;;;;;;4988322;28;20642;-61
2023/07/21 02:57:04;;;;;;;6.63;6.33;;;21.60;10.60;;;;;;4972189;28;20185;-61
2023/07/21 02:59:30;;;;;;;7.20;6.90;;;21.60;10.60;;;;;;4972190;28;20186;-62
2023/07/21 03:01:56;;;;;;;7.03;6.67;;;21.50;10.60;;;;;;4972350;28;20426;-61
2023/07/21 03:04:26;;;;;;;7.50;7.20;;;21.40;10.60;;;;;;4988411;28;20468;-60
2023/07/21 03:06:52;;;;;;;7.63;7.23;;;21.30;10.90;;;;;;4972245;28;20433;-60
2023/07/21 03:09:18;;;;;;;7.43;7.10;;;21.10;11.20;;;;;;4971781;28;20430;-57
2023/07/21 03:11:44;;;;;;;7.57;7.20;;;21.00;11.60;;;;;;4972103;28;20186;-57
2023/07/21 03:14:10;;;;;;;7.30;7.00;;;21.00;11.60;;;;;;4972174;28;20444;-58
2023/07/21 03:16:36;;;;;;;7.63;7.23;;;21.10;11.50;;;;;;4972298;28;20175;-58
2023/07/21 03:19:02;;;;;;;7.10;6.80;;;21.10;11.40;;;;;;4971936;28;20183;-58
2023/07/21 03:21:27;;;;;;;6.80;6.50;;;21.20;11.30;;;;;;4973310;28;20425;-58
2023/07/21 03:23:53;;;;;;;7.33;6.93;;;21.20;11.10;;;;;;4972077;28;20193;-58
2023/07/21 03:26:20;;;;;;;7.70;7.10;;;21.20;11.10;;;;;;4972036;28;20194;-58
2023/07/21 03:28:46;;;;;;;6.67;6.47;;;21.30;11.10;;;;;;4971970;28;20194;-58
2023/07/21 03:31:12;;;;;;;7.27;6.87;;;21.30;11.20;;;;;;4971815;28;20422;-58
2023/07/21 03:33:37;;;;;;;7.30;6.90;;;21.20;11.10;;;;;;4972108;28;20237;-59
2023/07/21 03:36:04;;;;;;;6.80;6.40;;;21.20;11.10;;;;;;4973473;28;20499;-59
2023/07/21 03:38:33;;;;;;;7.40;7.00;;;21.30;11.10;;;;;;4971757;28;20194;-61
2023/07/21 03:41:03;;;;;;;7.20;6.83;;;21.30;11.30;;;;;;4972069;28;20430;-61
2023/07/21 03:43:29;;;;;;;7.60;7.10;;;21.30;11.20;;;;;;4971861;28;20429;-61
2023/07/21 03:45:59;;;;;;;6.73;6.33;;;21.20;11.20;;;;;;4971907;28;20918;-58
2023/07/21 03:48:26;;;;;;;7.67;7.27;;;21.20;11.30;;;;;;4971685;28;20607;-58
2023/07/21 03:51:13;;;;;;;6.60;6.23;;;21.20;11.70;;;;;;4971855;28;20429;-61
2023/07/21 03:53:39;;;;;;;6.60;6.20;;;21.20;11.60;;;;;;4968254;28;20581;-60
2023/07/21 03:56:08;;;;;;;7.00;6.60;;;21.20;11.70;;;;;;4952400;28;20431;-61
2023/07/21 03:58:34;;;;;;;7.67;7.07;;;21.20;11.70;;;;;;4952268;29;20207;-61
2023/07/21 04:00:59;;;;;;;7.30;7.00;;;21.20;11.70;;;;;;4952446;28;20446;-58
2023/07/21 04:03:25;;;;;;;8.17;7.67;;;21.10;11.90;;;;;;4952438;29;20595;-58
2023/07/21 04:05:54;;;;;;;8.00;7.60;;;21.00;12.10;;;;;;4952355;28;20250;-58
2023/07/21 04:08:20;;;;;;;7.80;7.30;;;20.90;12.80;;;;;;4954842;28;20187;-58
2023/07/21 04:10:46;;;;;;;8.60;8.00;;;21.00;12.50;;;;;;4957508;28;20442;-61
2023/07/21 04:13:12;;;;;;;7.90;7.50;;;21.00;12.20;;;;;;4956184;29;20273;-61
2023/07/21 04:15:37;;;;;;;8.17;7.77;;;21.00;12.20;;;;;;4956163;28;20415;-61
2023/07/21 04:18:04;;;;;;;7.83;7.43;;;20.80;12.30;;;;;;4955864;28;20912;-61
2023/07/21 04:20:30;;;;;;;8.03;7.70;;;20.70;12.40;;;;;;4955921;29;20222;-61
2023/07/21 04:22:56;;;;;;;7.60;7.20;;;20.70;12.90;;;;;;4955933;29;20522;-61
2023/07/21 04:25:21;;;;;;;7.63;7.23;;;20.70;12.40;;;;;;4955664;28;20874;-61
2023/07/21 04:27:50;;;;;;;7.70;7.37;;;20.80;12.70;;;;;;4955809;29;20194;-61
2023/07/21 04:30:19;;;;;;;8.00;7.60;;;20.80;12.40;;;;;;4955500;29;20183;-61
2023/07/21 04:32:44;;;;;;;7.40;7.00;;;20.90;12.40;;;;;;4955878;29;21091;-58
2023/07/21 04:35:10;;;;;;;7.43;7.10;;;20.90;12.40;;;;;;4971279;28;20510;-58
2023/07/21 04:37:36;;;;;;;7.73;7.33;;;21.00;12.40;;;;;;4956851;28;20621;-58
2023/07/21 04:40:05;;;;;;;7.60;7.20;;;21.00;12.40;;;;;;4955425;29;20183;-58
2023/07/21 04:42:32;;;;;;;7.63;7.23;;;21.00;12.50;;;;;;4955470;28;20486;-58
2023/07/21 04:44:58;;;;;;;7.90;7.40;;;21.00;12.60;;;;;;4955471;29;20949;-59
2023/07/21 04:47:24;;;;;;;7.43;7.03;;;21.00;12.80;;;;;;4955529;29;20423;-59
2023/07/21 04:49:50;;;;;;;7.77;7.17;;;21.00;13.20;;;;;;4971642;28;21044;-59
2023/07/21 04:52:16;;;;;;;7.73;7.23;;;20.90;13.10;;;;;;4954062;29;20549;-63
2023/07/21 04:54:42;;;;;;;7.30;7.00;;;20.90;13.10;;;;;;4954909;28;20441;-64
2023/07/21 04:57:07;;;;;;;7.63;7.13;;;20.90;12.70;;;;;;4955050;29;20238;-64
2023/07/21 04:59:33;;;;;;;7.10;6.53;;;20.90;12.60;;;;;;4955354;28;20180;-64
2023/07/21 05:01:59;;;;;;;7.67;7.33;;;20.90;12.70;;;;;;4955015;28;20519;-64
2023/07/21 05:04:24;;;;;;;7.53;7.13;;;20.90;12.60;;;;;;4971441;28;20191;-64
2023/07/21 05:06:50;;;;;;;7.83;7.43;;;20.90;12.70;;;;;;4955247;28;20183;-63
2023/07/21 05:09:17;;;;;;;7.80;7.30;;;20.90;12.90;;;;;;4955060;29;20218;-63
2023/07/21 05:11:43;;;;;;;7.53;7.23;;;21.00;12.80;;;;;;4971218;28;20210;-64
2023/07/21 05:14:08;;;;;;;9.23;8.50;;;21.00;12.40;;;;;;4971331;28;20427;-60
2023/07/21 05:16:37;;;;;;;8.60;8.13;;;21.00;12.60;;;;;;4954999;28;20263;-59
2023/07/21 05:19:03;;;;;;;7.87;7.40;;;21.00;12.60;;;;;;4954699;28;20207;-59
2023/07/21 05:21:29;;;;;;;7.60;7.30;;;21.10;12.60;;;;;;4954653;28;20518;-60
2023/07/21 05:23:55;;;;;;;7.80;7.40;;;21.10;12.50;;;;;;4953398;28;20854;-64
2023/07/21 05:26:21;;;;;;;6.93;6.50;;;21.10;12.50;;;;;;4970741;28;20179;-64
2023/07/21 05:28:49;;;;;;;7.10;6.80;;;21.10;12.60;;;;;;4954851;29;20230;-64
2023/07/21 05:31:15;;;;;;;8.00;7.60;;;21.00;13.00;;;;;;4954957;29;20431;-61
2023/07/21 05:33:41;;;;;;;7.40;6.87;;;21.00;13.10;;;;;;4954761;29;20463;-59
2023/07/21 05:36:10;;;;;;;8.10;7.70;;;21.10;13.40;;;;;;4955048;29;20423;-59
2023/07/21 05:38:37;;;;;;;7.73;7.20;;;21.10;13.80;;;;;;4954871;29;20194;-53
2023/07/21 05:41:03;;;;;;;8.37;8.07;;;20.90;13.70;;;;;;4955074;28;20434;-54
2023/07/21 05:43:29;;;;;;;7.63;7.33;;;21.00;13.70;;;;;;4954671;29;20430;-51
2023/07/21 05:45:55;;;;;;;8.50;7.83;;;21.00;13.70;;;;;;4955936;29;20411;-54
2023/07/21 05:48:21;;;;;;;7.80;7.30;;;21.10;13.70;;;;;;4962918;28;20287;-52
2023/07/21 05:50:47;;;;;;;8.57;8.10;;;21.00;13.40;;;;;;4973597;28;20189;-54
2023/07/21 05:53:12;;;;;;;9.00;8.33;;;20.80;13.60;;;;;;4973535;28;20630;-54
2023/07/21 05:55:44;;;;;;;9.50;8.90;;;20.70;13.60;;;;;;4975037;28;20182;-55
2023/07/21 05:58:10;;;;;;;9.10;8.70;;;20.60;13.80;;;;;;4973314;28;20175;-50
2023/07/21 06:00:39;;;;;;;7.93;7.53;;;20.60;13.70;;;;;;4990848;28;20426;-54
2023/07/21 06:03:07;;;;;;;8.07;7.53;;;20.60;14.00;;;;;;4973324;28;20553;-53
2023/07/21 06:05:36;;;;;;;8.23;7.83;;;20.70;14.50;;;;;;4974642;28;20509;-53
2023/07/21 06:08:03;;;;;;;9.10;8.70;;;20.80;13.60;;;;;;4973003;28;20426;-55
2023/07/21 06:10:30;;;;;;;9.60;8.70;;;20.80;13.60;;;;;;4973136;28;20797;-52
2023/07/21 06:12:56;;;;;;;8.67;8.27;;;20.80;13.60;;;;;;4972819;28;20466;-51
2023/07/21 06:15:21;;;;;;;9.07;8.47;;;20.80;13.60;;;;;;4973008;28;20787;-53
2023/07/21 06:17:47;;;;;;;9.07;8.60;;;20.80;13.30;;;;;;4972899;28;20310;-51
2023/07/21 06:20:13;;;;;;;8.97;8.47;;;20.90;12.80;;;;;;4972794;28;20266;-52
2023/07/21 06:22:39;;;;;;;8.77;8.30;;;20.80;12.80;;;;;;4973157;28;20187;-50
2023/07/21 06:25:05;;;;;;;8.33;7.90;;;20.80;12.90;;;;;;4972994;28;20175;-51
2023/07/21 06:27:30;;;;;;;8.90;8.30;;;21.00;12.80;;;;;;4972796;28;20182;-54
2023/07/21 06:29:56;;;;;;;7.83;7.47;;;21.10;12.50;;;;;;4971931;28;20410;-51
2023/07/21 06:32:23;;;;;;;8.30;7.90;;;21.20;12.20;;;;;;4972679;28;20234;-54
2023/07/21 06:34:49;;;;;;;7.80;7.30;;;21.20;11.70;;;;;;4972612;28;20182;-54
2023/07/21 06:37:15;;;;;;;9.00;8.37;;;21.30;11.30;;;;;;4972684;28;20410;-50
2023/07/21 06:39:41;;;;;;;8.33;7.93;;;21.30;11.50;;;;;;4972370;28;20484;-53
2023/07/21 06:42:07;;;;;;;8.30;7.80;;;21.30;12.00;;;;;;4972681;28;20183;-53
2023/07/21 06:44:34;;;;;;;8.30;7.80;;;21.50;11.30;;;;;;4968448;28;20191;-56
2023/07/21 06:47:00;;;;;;;7.70;7.30;;;21.50;11.10;;;;;;4951727;28;20443;-56
2023/07/21 06:49:26;;;;;;;8.60;8.10;;;21.60;10.80;;;;;;4967711;28;20430;-58
2023/07/21 06:51:52;;;;;;;7.93;7.60;;;21.70;11.00;;;;;;4968451;28;20438;-57
2023/07/21 06:54:18;;;;;;;8.10;7.40;;;21.70;11.60;;;;;;4970978;28;20659;-60
2023/07/21 06:56:43;;;;;;;7.67;7.37;;;21.80;10.50;;;;;;4953613;28;20423;-60
2023/07/21 06:59:09;;;;;;;7.00;6.70;;;21.80;10.00;;;;;;4951503;28;20521;-59
2023/07/21 07:01:35;;;;;;;6.90;6.60;;;21.80;9.90;;;;;;4950631;28;20644;-58
2023/07/21 07:04:01;;;;;;;7.27;6.90;;;21.90;9.40;;;;;;4948679;28;20184;-59
2023/07/21 07:06:28;;;;;;;7.67;7.27;;;21.90;10.00;;;;;;4968006;28;20266;-59
2023/07/21 07:08:55;;;;;;;7.20;6.80;;;21.90;10.00;;;;;;4949170;28;20624;-59
2023/07/21 07:11:21;;;;;;;7.17;6.77;;;21.90;9.70;;;;;;4947643;28;20455;-59
2023/07/21 07:13:47;;;;;;;6.77;6.33;;;21.90;9.90;;;;;;4953916;28;20474;-59
2023/07/21 07:16:13;;;;;;;7.40;6.70;;;21.90;10.00;;;;;;4956018;28;20419;-59
2023/07/21 07:18:39;;;;;;;7.13;6.73;;;21.90;10.20;;;;;;4965504;28;20270;-59
2023/07/21 07:21:04;;;;;;;6.80;6.50;;;21.90;10.00;;;;;;4951390;29;20214;-59
2023/07/21 07:23:30;;;;;;;8.17;7.63;;;21.90;10.20;;;;;;4964176;28;20188;-59
2023/07/21 07:25:56;;;;;;;8.03;7.63;;;21.90;10.00;;;;;;4965218;28;20186;-59
2023/07/21 07:28:22;;;;;;;7.37;7.07;;;21.90;10.00;;;;;;4951601;28;20551;-59
2023/07/21 07:30:48;;;;;;;8.33;7.73;;;21.80;10.60;;;;;;4952643;28;20258;-59
2023/07/21 07:33:15;;;;;;;7.97;7.37;;;21.80;10.80;;;;;;4951826;28;20469;-59
2023/07/21 07:35:52;;;;;;;7.97;7.50;;;21.80;11.10;;;;;;4953738;28;20442;-59
2023/07/21 07:38:19;;;;;;;9.50;7.37;;;21.80;11.30;;;;;;4951943;28;20461;-61
2023/07/21 07:40:47;;;;;;;8.57;7.00;;;21.80;11.00;;;;;;4954031;28;20457;-59
2023/07/21 07:43:13;;;;;;;7.40;6.90;;;21.80;11.30;;;;;;4960302;28;20437;-58
2023/07/21 07:45:39;;;;;;;6.70;6.17;;;21.80;11.10;;;;;;4975643;28;20418;-58
2023/07/21 07:48:06;;;;;;;7.27;6.60;;;21.80;10.70;;;;;;4975215;28;20485;-59
2023/07/21 07:50:39;;;;;;;7.00;6.40;;;21.80;10.50;;;;;;4975524;28;20191;-59
2023/07/21 07:53:06;;;;;;;7.63;6.83;;;21.90;10.60;;;;;;4974765;28;20472;-59
2023/07/21 07:55:42;;;;;;;7.27;6.63;;;22.00;10.10;;;;;;4975450;28;20517;-59
2023/07/21 07:58:09;;;;;;;7.37;7.00;;;22.00;10.10;;;;;;4975075;28;20421;-58
2023/07/21 08:00:36;;;;;;;7.50;7.10;;;22.00;10.10;;;;;;4975446;28;20410;-59
2023/07/21 08:03:06;;;;;;;6.83;6.43;;;22.00;10.40;;;;;;4975316;28;20425;-58
2023/07/21 08:05:34;;;;;;;7.73;7.23;;;22.10;10.60;;;;;;4991329;28;20923;-58
2023/07/21 08:08:01;;;;;;;7.57;7.10;;;22.20;10.80;;;;;;4975099;28;20418;-59
2023/07/21 08:10:28;;;;;;;7.40;7.00;;;22.20;10.30;;;;;;4974948;28;20441;-58
2023/07/21 08:12:58;;;;;;;7.30;7.00;;;22.10;10.10;;;;;;4975176;28;20454;-59
2023/07/21 08:15:24;;;;;;;8.20;7.37;;;22.10;10.10;;;;;;4974850;28;21014;-59
2023/07/21 08:17:50;;;;;;;7.20;6.90;;;22.10;10.10;;;;;;4974923;28;20417;-59
2023/07/21 08:20:18;;;;;;;7.33;6.93;;;22.10;10.20;;;;;;4974685;28;20406;-59
2023/07/21 08:22:45;;;;;;;7.90;7.50;;;22.10;9.70;;;;;;4975073;28;20422;-59
2023/07/21 08:25:10;;;;;;;7.53;7.13;;;22.20;9.80;;;;;;4974710;28;20421;-59
2023/07/21 08:27:36;;;;;;;7.27;6.97;;;22.20;9.60;;;;;;4974890;28;20923;-59
2023/07/21 08:30:02;;;;;;;7.37;7.00;;;22.20;9.40;;;;;;4974619;28;20647;-59
2023/07/21 08:32:28;;;;;;;7.50;7.20;;;22.20;8.90;;;;;;4974455;28;20198;-59
2023/07/21 08:34:57;;;;;;;6.50;6.30;;;22.40;8.70;;;;;;4955508;28;20481;-59
2023/07/21 08:37:22;;;;;;;6.83;6.47;;;22.40;8.00;;;;;;4955025;28;20172;-59
2023/07/21 08:39:48;;;;;;;6.23;5.93;;;22.50;7.60;;;;;;4955143;28;20761;-59
2023/07/21 08:42:14;;;;;;;6.53;6.33;;;22.60;7.70;;;;;;4955103;28;20190;-59
2023/07/21 08:44:41;;;;;;;6.93;6.63;;;22.60;8.00;;;;;;4966628;28;20182;-59
2023/07/21 08:47:08;;;;;;;6.67;6.37;;;22.70;7.90;;;;;;4974188;28;20911;-59
2023/07/21 08:49:34;;;;;;;7.37;6.87;;;22.70;7.90;;;;;;4974250;28;20517;-59
2023/07/21 08:52:00;;;;;;;7.60;7.00;;;22.70;7.50;;;;;;4960217;28;20510;-59
2023/07/21 08:54:26;;;;;;;7.43;7.13;;;22.70;7.60;;;;;;4954435;28;20187;-59
2023/07/21 08:56:52;;;;;;;7.90;7.50;;;22.70;6.90;;;;;;4967202;28;20265;-59
2023/07/21 08:59:21;;;;;;;8.23;7.83;;;22.70;7.50;;;;;;4978589;28;20514;-59
2023/07/21 09:01:47;;;;;;;7.30;7.00;;;22.80;7.50;;;;;;4955024;29;20526;-59
2023/07/21 09:04:24;;;;;;;8.10;7.40;;;22.80;6.90;;;;;;4954838;29;20926;-59
2023/07/21 09:06:57;;;;;;;7.60;7.20;;;22.90;7.40;;;;;;4954839;28;20427;-58
2023/07/21 09:09:25;;;;;;;7.37;6.97;;;22.90;7.00;;;;;;4954078;29;20431;-60
2023/07/21 09:12:03;;;;;;;7.87;7.47;;;23.00;7.20;;;;;;4954710;28;20434;-59
2023/07/21 09:14:40;;;;;;;7.57;7.17;;;23.00;7.20;;;;;;4954557;28;20418;-59
2023/07/21 09:17:07;;;;;;;10.53;7.83;;;23.00;6.60;;;;;;4951438;29;20478;-59
2023/07/21 09:19:37;;;;;;;7.90;7.50;;;23.00;7.20;;;;;;4951071;29;20424;-59
2023/07/21 09:22:03;;;;;;;8.13;7.83;;;23.10;6.30;;;;;;4951498;29;20951;-60
2023/07/21 09:24:29;;;;;;;7.70;7.33;;;23.10;6.30;;;;;;4936538;29;20419;-60
2023/07/21 09:27:18;;;;;;;7.27;6.90;;;23.30;4.90;;;;;;4964920;28;20435;-64
2023/07/21 09:29:44;;;;;;;7.50;7.10;;;23.30;4.40;;;;;;4973817;28;20542;-62
2023/07/21 09:32:15;;;;;;;6.90;6.60;;;23.30;4.50;;;;;;4973578;28;20493;-63
2023/07/21 09:35:04;;;;;;;6.73;6.43;;;23.30;4.10;;;;;;4973948;28;20529;-63
2023/07/21 09:37:33;;;;;;;7.20;6.90;;;23.30;3.70;;;;;;4973426;28;20422;-61
2023/07/21 09:40:00;;;;;;;7.53;7.13;;;23.20;3.70;;;;;;4969539;28;20427;-61
2023/07/21 09:42:28;;;;;;;6.90;6.60;;;23.20;3.90;;;;;;4954008;28;20908;-61
2023/07/21 09:44:55;;;;;;;8.07;7.57;;;23.30;4.10;;;;;;4954193;29;20419;-63
2023/07/21 09:47:22;;;;;;;6.80;6.50;;;23.30;4.10;;;;;;4954848;28;20513;-61
2023/07/21 09:49:49;;;;;;;7.23;6.93;;;23.40;4.10;;;;;;4953896;29;20427;-61
2023/07/21 09:52:17;;;;;;;6.90;6.60;;;23.40;3.80;;;;;;4953733;29;20875;-60
2023/07/21 09:54:47;;;;;;;7.40;7.03;;;23.40;4.20;;;;;;4954115;28;20733;-60
2023/07/21 09:57:16;;;;;;;7.13;6.83;;;23.50;4.50;;;;;;4953786;29;20425;-60
2023/07/21 09:59:46;;;;;;;7.40;6.97;;;23.60;4.60;;;;;;4953685;28;20463;-60
2023/07/21 10:02:12;;;;;;;6.40;6.17;;;23.80;4.00;;;;;;4953829;29;20434;-60
2023/07/21 10:04:38;;;;;;;7.57;7.27;;;23.90;3.80;;;;;;4952880;28;20415;-61
2023/07/21 10:07:06;;;;;;;7.43;7.13;;;24.00;3.40;;;;;;4953733;29;20186;-58
2023/07/21 10:09:33;;;;;;;7.10;6.80;;;24.10;3.20;;;;;;4953211;29;20426;-58
2023/07/21 10:12:14;;;;;;;7.10;6.70;;;24.20;3.20;;;;;;4953680;28;20435;-60
2023/07/21 10:14:40;;;;;;;7.07;6.77;;;24.40;3.20;;;;;;4958520;28;20422;-60
2023/07/21 10:17:10;;;;;;;6.50;6.30;;;24.50;2.60;;;;;;4973161;28;20841;-60
2023/07/21 10:19:39;;;;;;;6.83;6.30;;;24.70;2.80;;;;;;4972502;28;20418;-60
2023/07/21 10:22:10;;;;;;;6.60;6.40;;;24.70;2.40;;;;;;4972875;28;20782;-61
2023/07/21 10:24:44;;;;;;;7.47;6.87;;;24.70;2.50;;;;;;4972898;28;20760;-61
2023/07/21 10:27:21;;;;;;;7.23;6.93;;;24.70;2.40;;;;;;4972930;28;20410;-59
2023/07/21 10:30:20;;;;;;;7.80;7.40;;;24.70;2.80;;;;;;4969935;28;20418;-61
2023/07/21 10:32:45;;;;;;;7.17;6.77;;;24.70;2.40;;;;;;4973977;28;20544;-60
2023/07/21 10:35:30;;;;;;;6.80;6.40;;;24.70;2.50;;;;;;4982701;28;20767;-60
2023/07/21 10:38:27;;;;;;;6.83;6.53;;;24.70;2.20;;;;;;4953063;28;20230;-60
2023/07/21 10:40:53;;;;;;;6.83;6.53;;;24.80;2.70;;;;;;4941683;28;20781;-60
2023/07/21 10:43:18;;;;;;;6.33;6.03;;;24.90;2.00;;;;;;4968170;28;20418;-61
2023/07/21 10:45:50;;;;;;;6.60;6.30;;;25.10;2.00;;;;;;4972568;28;20662;-61
2023/07/21 10:48:16;;;;;;;6.43;6.13;;;25.20;1.80;;;;;;4971984;28;20179;-61
2023/07/21 10:50:58;;;;;;;7.30;6.80;;;25.10;1.20;;;;;;4962423;28;20427;-60
2023/07/21 10:53:24;;;;;;;7.40;6.57;;;25.20;1.30;;;;;;4952664;29;20835;-60
2023/07/21 10:55:53;;;;;;;6.77;6.40;;;25.30;1.20;;;;;;4954102;29;20415;-61
2023/07/21 10:58:19;;;;;;;6.80;6.27;;;25.50;1.00;;;;;;4952454;28;20187;-60
2023/07/21 11:00:48;;;;;;;6.00;5.60;;;25.50;1.00;;;;;;4963395;28;20858;-61
2023/07/21 11:03:14;;;;;;;6.87;6.37;;;25.50;1.00;;;;;;4971881;28;20958;-60
2023/07/21 11:05:40;;;;;;;6.93;6.33;;;25.40;1.10;;;;;;4959759;28;20802;-60
2023/07/21 11:08:10;;;;;;;6.40;5.97;;;25.30;1.60;;;;;;4952431;29;20415;-60
2023/07/21 11:10:36;;;;;;;6.20;5.90;;;25.40;1.50;;;;;;4952654;28;20191;-60
2023/07/21 11:13:02;;;;;;;6.60;6.23;;;25.40;1.50;;;;;;4952443;29;20486;-60
2023/07/21 11:15:28;;;;;;;6.77;6.10;;;25.40;1.00;;;;;;4952386;28;20430;-60
2023/07/21 11:18:01;;;;;;;6.50;6.20;;;25.30;1.10;;;;;;4952337;29;20518;-60
2023/07/21 11:20:27;;;;;;;6.40;6.10;;;25.20;2.10;;;;;;4952137;29;20183;-60
2023/07/21 11:22:53;;;;;;;6.60;6.30;;;25.10;1.80;;;;;;4952487;29;20994;-60
2023/07/21 11:25:18;;;;;;;6.33;5.87;;;25.10;2.30;;;;;;4952220;29;20422;-60
2023/07/21 11:27:45;;;;;;;6.90;6.07;;;25.00;1.80;;;;;;4952459;29;20550;-60
2023/07/21 11:30:15;;;;;;;7.10;6.60;;;24.90;2.20;;;;;;4952114;28;20186;-60
2023/07/21 11:32:41;;;;;;;6.03;5.83;;;24.90;2.60;;;;;;4952467;29;20470;-60
2023/07/21 11:35:07;;;;;;;5.43;5.23;;;24.90;2.40;;;;;;4952274;29;20510;-60
2023/07/21 11:37:40;;;;;;;6.67;6.37;;;24.80;2.60;;;;;;4968508;28;20187;-60
2023/07/21 11:40:15;;;;;;;6.70;6.30;;;24.70;2.60;;;;;;4951973;28;20451;-61
2023/07/21 11:42:45;;;;;;;6.20;5.90;;;24.60;2.70;;;;;;4952469;29;20421;-61
2023/07/21 11:45:33;;;;;;;5.97;5.77;;;24.60;2.70;;;;;;4955330;28;20441;-61
2023/07/21 11:48:01;;;;;;;8.67;8.10;;;24.50;3.10;;;;;;4987736;28;20441;-60
2023/07/21 11:50:28;;;;;;;7.00;6.70;;;24.50;3.00;;;;;;4971467;28;20779;-60
2023/07/21 11:52:54;;;;;;;7.97;7.47;;;24.50;3.20;;;;;;4987487;28;20906;-60
2023/07/21 11:55:19;;;;;;;5.97;5.67;;;24.40;3.60;;;;;;4971447;28;20530;-60
2023/07/21 11:57:45;;;;;;;6.13;5.73;;;24.40;3.70;;;;;;4971463;28;20185;-60
2023/07/21 12:00:11;;;;;;;6.10;5.80;;;24.40;3.10;;;;;;4971284;28;20214;-60
2023/07/21 12:02:39;;;;;;;6.70;6.30;;;24.40;3.50;;;;;;4971422;28;20186;-61
2023/07/21 12:05:05;;;;;;;5.83;5.63;;;24.30;3.60;;;;;;4987470;28;20417;-61
2023/07/21 12:07:31;;;;;;;5.47;5.07;;;24.30;3.80;;;;;;4971144;28;20422;-61
2023/07/21 12:09:58;;;;;;;5.67;5.47;;;24.30;3.70;;;;;;4971274;28;20450;-60
2023/07/21 12:12:24;;;;;;;6.10;5.70;;;24.30;3.80;;;;;;4987346;28;20527;-61
2023/07/21 12:14:50;;;;;;;6.87;6.50;;;24.30;3.80;;;;;;4939588;28;20427;-61
2023/07/21 12:17:15;;;;;;;6.80;6.50;;;24.30;3.90;;;;;;4933023;29;20531;-61
2023/07/21 12:19:41;;;;;;;6.57;6.17;;;24.30;3.90;;;;;;4934692;29;20184;-61
2023/07/21 12:22:07;;;;;;;6.20;5.90;;;24.20;3.70;;;;;;4976862;28;20175;-60
2023/07/21 12:24:33;;;;;;;6.50;6.20;;;24.20;3.60;;;;;;4971253;28;20179;-61
2023/07/21 12:26:58;;;;;;;7.13;6.43;;;24.20;3.60;;;;;;4955276;28;20414;-60
2023/07/21 12:29:24;;;;;;;6.80;6.50;;;24.10;3.60;;;;;;4973395;28;20175;-61
2023/07/21 12:31:50;;;;;;;7.70;7.40;;;24.10;4.00;;;;;;4974897;28;20175;-59
2023/07/21 12:34:15;;;;;;;7.57;7.00;;;24.10;4.30;;;;;;4958665;28;20641;-60
2023/07/21 12:36:41;;;;;;;8.33;7.53;;;24.10;3.70;;;;;;4955627;29;20191;-61
2023/07/21 12:39:10;;;;;;;7.30;6.90;;;24.00;5.90;;;;;;4955243;29;20175;-58
2023/07/21 12:41:36;;;;;;;7.60;7.00;;;24.00;6.60;;;;;;4955447;29;20213;-58
2023/07/21 12:44:02;;;;;;;6.97;6.67;;;23.90;6.80;;;;;;4955342;29;20423;-60
2023/07/21 12:46:28;;;;;;;7.70;7.40;;;23.90;7.00;;;;;;4954972;28;20525;-60
2023/07/21 12:48:54;;;;;;;7.93;7.23;;;23.90;7.00;;;;;;4954976;28;20669;-58
2023/07/21 12:51:20;;;;;;;6.57;6.37;;;23.90;7.90;;;;;;4955007;29;20625;-59
2023/07/21 12:53:45;;;;;;;7.13;6.63;;;23.90;6.80;;;;;;4955046;28;20215;-59